Time;durP1;ratioP1;P1;durP2;ratioP2;P2;SDS_P1;SDS_P2;PMS_P1;PMS_P2;Temp;Humidity;BMP_temperature;BMP_pressure;BME280_temperature;BME280_humidity;BME280_pressure;Samples;Min_cycle;Max_cycle;Signal;HPM_P1;HPM_P2
2023/03/11 00:00:45;;;;;;;0.60;0.60;;;8.30;70.70;;;7.63;59.31;92761.22;5095434;28;20273;-19
2023/03/11 00:03:17;;;;;;;0.80;0.80;;;8.10;71.50;;;7.43;60.04;92753.72;5096034;28;20532;-19
2023/03/11 00:05:46;;;;;;;0.60;0.60;;;8.00;72.00;;;7.28;60.89;92761.19;5111549;28;20261;-19
2023/03/11 00:08:18;;;;;;;0.70;0.70;;;7.80;72.10;;;7.09;60.31;92770.91;5095022;28;20695;-20
2023/03/11 00:10:51;;;;;;;0.70;0.70;;;7.70;72.20;;;6.95;59.58;92768.47;5094397;28;20178;-20
2023/03/11 00:13:19;;;;;;;0.80;0.80;;;7.50;71.70;;;6.80;59.43;92783.72;5094644;28;20202;-19
2023/03/11 00:15:50;;;;;;;0.70;0.70;;;7.30;71.70;;;6.65;58.99;92764.09;5111117;28;20194;-20
2023/03/11 00:18:17;;;;;;;0.70;0.70;;;7.20;71.50;;;6.51;59.55;92766.06;5095072;28;20270;-19
2023/03/11 00:20:45;;;;;;;0.80;0.80;;;7.00;71.70;;;6.39;59.53;92762.59;5095004;28;20540;-19
2023/03/11 00:23:14;;;;;;;0.70;0.70;;;6.90;71.80;;;6.30;58.95;92782.13;5094990;28;20214;-19
2023/03/11 00:25:44;;;;;;;0.63;0.63;;;6.80;71.80;;;6.17;59.20;92767.47;5095061;28;20229;-19
2023/03/11 00:28:11;;;;;;;0.70;0.70;;;6.60;72.70;;;6.10;58.59;92806.56;5095006;28;20187;-20
2023/03/11 00:30:41;;;;;;;0.90;0.90;;;6.50;71.70;;;5.97;58.53;92783.25;5095221;28;20263;-19
2023/03/11 00:33:12;;;;;;;0.70;0.70;;;6.40;71.60;;;5.96;58.85;92782.47;5094367;28;20535;-19
2023/03/11 00:35:41;;;;;;;0.70;0.70;;;6.30;71.80;;;5.95;58.55;92799.09;5094104;28;20247;-19
2023/03/11 00:38:14;;;;;;;0.70;0.70;;;6.20;71.60;;;6.00;57.87;92799.25;5094730;28;20194;-19
2023/03/11 00:40:43;;;;;;;0.80;0.80;;;6.30;71.40;;;6.00;57.53;92801.88;5094922;28;20183;-19
2023/03/11 00:43:10;;;;;;;0.70;0.70;;;6.20;71.20;;;5.98;57.68;92803.06;5095015;28;20267;-19
2023/03/11 00:45:38;;;;;;;0.60;0.60;;;6.20;71.20;;;6.01;57.54;92807.88;5095353;28;20187;-19
2023/03/11 00:48:07;;;;;;;0.70;0.70;;;6.30;71.20;;;6.03;57.15;92813.66;5095091;28;20201;-19
2023/03/11 00:50:36;;;;;;;0.65;0.65;;;6.30;71.00;;;6.05;56.85;92829.84;5095054;28;20234;-19
2023/03/11 00:53:04;;;;;;;0.60;0.60;;;6.30;70.60;;;6.06;56.49;92821.81;5093642;28;20251;-19
2023/03/11 00:55:33;;;;;;;0.70;0.70;;;6.30;70.50;;;6.09;55.74;92820.59;5110719;28;20190;-19
2023/03/11 00:58:05;;;;;;;0.60;0.60;;;6.40;70.30;;;6.17;55.76;92822.13;5110725;28;20187;-19
2023/03/11 01:00:53;;;;;;;0.70;0.70;;;6.40;70.20;;;6.10;55.51;92832.59;5107542;28;20240;-19
2023/03/11 01:03:20;;;;;;;0.80;0.80;;;6.30;69.90;;;6.02;54.02;92830.28;5110434;28;20248;-19
2023/03/11 01:05:48;;;;;;;0.70;0.70;;;6.30;69.00;;;5.84;51.77;92815.41;5093699;28;20191;-19
2023/03/11 01:08:15;;;;;;;0.70;0.70;;;6.20;67.30;;;5.82;51.45;92852.03;5096347;28;20218;-19
2023/03/11 01:10:42;;;;;;;0.70;0.70;;;6.20;67.20;;;5.89;50.69;92862.38;5098716;28;20190;-19
2023/03/11 01:13:09;;;;;;;0.80;0.80;;;6.10;66.90;;;5.92;51.38;92852.34;5098312;28;20187;-19
2023/03/11 01:15:36;;;;;;;0.80;0.80;;;6.10;67.40;;;5.96;49.76;92873.53;5097394;28;20202;-19
2023/03/11 01:18:05;;;;;;;0.70;0.70;;;6.10;66.10;;;5.95;49.43;92863.34;5098637;28;20676;-20
2023/03/11 01:20:34;;;;;;;0.60;0.60;;;6.10;66.00;;;5.92;48.32;92877.59;5099272;27;20271;-19
2023/03/11 01:23:01;;;;;;;0.90;0.90;;;6.10;65.10;;;5.86;47.97;92866.22;5097964;28;20646;-19
2023/03/11 01:25:29;;;;;;;0.70;0.70;;;6.10;64.80;;;5.84;48.68;92877.84;5098003;28;20292;-19
2023/03/11 01:27:58;;;;;;;0.70;0.70;;;6.00;65.30;;;5.86;47.79;92888.81;5114218;28;20194;-19
2023/03/11 01:30:27;;;;;;;0.80;0.80;;;6.10;64.80;;;5.84;48.46;92896.06;5097165;28;20595;-19
2023/03/11 01:32:56;;;;;;;0.70;0.70;;;6.10;65.20;;;5.75;51.19;92895.53;5113917;28;20222;-19
2023/03/11 01:35:26;;;;;;;0.80;0.80;;;6.10;66.30;;;5.67;52.21;92891.38;5097970;28;20191;-19
2023/03/11 01:37:53;;;;;;;0.60;0.60;;;6.00;67.10;;;5.61;53.56;92885.22;5114283;28;20507;-19
2023/03/11 01:40:39;;;;;;;0.70;0.70;;;6.00;67.80;;;5.50;53.82;92893.69;5096977;28;20195;-19
2023/03/11 01:43:45;;;;;;;0.60;0.60;;;5.90;68.00;;;5.37;53.51;92910.19;5113701;28;20260;-19
2023/03/11 01:46:36;;;;;;;0.70;0.70;;;5.80;68.10;;;5.21;53.43;92913.25;5113815;28;20202;-19
2023/03/11 01:49:07;;;;;;;0.80;0.80;;;5.70;68.20;;;5.17;52.44;92938.88;5096952;28;20220;-19
2023/03/11 01:51:40;;;;;;;0.70;0.70;;;5.60;67.10;;;4.91;53.33;92896.41;5113838;28;20591;-19
2023/03/11 01:54:14;;;;;;;0.60;0.60;;;5.40;67.80;;;4.86;53.21;92942.19;5096601;28;20201;-19
2023/03/11 01:56:41;;;;;;;0.70;0.70;;;5.30;67.60;;;4.74;54.22;92929.06;5079949;28;20202;-19
2023/03/11 01:59:13;;;;;;;0.70;0.70;;;5.30;68.20;;;4.52;54.82;92934.50;5079913;28;20205;-19
2023/03/11 02:02:09;;;;;;;0.70;0.70;;;5.20;69.30;;;4.38;55.78;92931.16;5113630;28;20198;-19
2023/03/11 02:04:39;;;;;;;0.70;0.70;;;5.00;68.60;;;4.19;55.39;92937.97;5076076;28;20226;-19
2023/03/11 02:07:08;;;;;;;0.77;0.77;;;4.90;68.60;;;4.15;54.89;92936.75;5113515;28;20195;-19
2023/03/11 02:09:35;;;;;;;0.60;0.60;;;4.80;68.50;;;4.16;55.95;92938.34;5079869;28;20217;-19
2023/03/11 02:12:03;;;;;;;0.70;0.70;;;4.70;69.00;;;4.11;55.80;92927.78;5097588;28;20223;-19
2023/03/11 02:14:31;;;;;;;0.80;0.80;;;4.70;69.10;;;4.16;56.01;92935.75;5113154;28;20205;-19
2023/03/11 02:16:58;;;;;;;0.68;0.68;;;4.60;69.30;;;4.12;55.57;92924.97;5096213;28;20645;-19
2023/03/11 02:19:50;;;;;;;0.70;0.70;;;4.60;69.20;;;4.16;55.93;92931.38;5079178;28;20294;-20
2023/03/11 02:22:17;;;;;;;0.70;0.70;;;4.60;69.50;;;4.16;56.12;92941.75;5113199;28;20633;-19
2023/03/11 02:25:09;;;;;;;0.70;0.70;;;4.60;69.60;;;4.07;56.05;92962.91;5112643;28;20237;-19
2023/03/11 02:27:40;;;;;;;0.68;0.68;;;4.50;69.60;;;3.93;56.02;92960.31;5096366;28;20187;-19
2023/03/11 02:30:12;;;;;;;0.70;0.70;;;4.50;69.20;;;4.01;55.54;92965.28;5096370;28;20214;-19
2023/03/11 02:32:46;;;;;;;0.70;0.70;;;4.40;69.00;;;4.04;53.87;92935.59;5079809;28;20191;-20
2023/03/11 02:35:15;;;;;;;0.70;0.70;;;4.40;68.40;;;4.06;53.36;92948.34;5096402;28;20199;-19
2023/03/11 02:37:52;;;;;;;0.70;0.70;;;4.40;68.20;;;4.05;52.29;92947.53;5095855;28;20230;-19
2023/03/11 02:40:23;;;;;;;0.80;0.80;;;4.40;67.50;;;4.03;51.35;92964.28;5112766;28;20202;-19
2023/03/11 02:42:57;;;;;;;0.70;0.70;;;4.40;66.90;;;4.04;50.69;92937.34;5096992;28;20270;-19
2023/03/11 02:45:26;;;;;;;0.80;0.80;;;4.40;66.30;;;4.00;50.71;92916.22;5112603;28;20201;-19
2023/03/11 02:47:56;;;;;;;0.70;0.70;;;4.40;66.40;;;3.99;50.66;92949.16;5112771;28;20191;-19
2023/03/11 02:50:24;;;;;;;0.70;0.70;;;4.40;66.20;;;4.07;49.56;92963.69;5112569;28;20205;-19
2023/03/11 02:52:51;;;;;;;0.70;0.70;;;4.40;65.70;;;4.08;50.27;92947.13;5113054;28;20187;-19
2023/03/11 02:55:21;;;;;;;0.70;0.70;;;4.40;66.20;;;4.04;50.23;92952.91;5078943;28;20618;-19
2023/03/11 02:57:48;;;;;;;0.70;0.70;;;4.50;65.90;;;4.01;49.86;92961.91;5095481;28;20194;-19
2023/03/11 03:00:17;;;;;;;0.70;0.70;;;4.40;65.60;;;4.03;50.31;92959.91;5112388;28;20229;-19
2023/03/11 03:02:56;;;;;;;0.70;0.70;;;4.40;65.70;;;3.96;48.67;92972.09;5112314;28;20625;-19
2023/03/11 03:05:24;;;;;;;0.70;0.70;;;4.40;64.80;;;3.96;49.09;92985.06;5095101;28;20320;-19
2023/03/11 03:07:51;;;;;;;0.80;0.80;;;4.40;64.80;;;3.96;48.51;92985.84;5095269;28;20290;-19
2023/03/11 03:10:21;;;;;;;0.60;0.60;;;4.40;65.00;;;4.00;48.58;92997.44;5096403;28;20187;-19
2023/03/11 03:12:48;;;;;;;0.70;0.70;;;4.40;64.80;;;4.05;48.47;93027.16;5112646;28;20293;-19
2023/03/11 03:15:15;;;;;;;0.70;0.70;;;4.30;65.60;;;4.00;48.33;92991.44;5095187;28;20209;-20
2023/03/11 03:17:44;;;;;;;0.70;0.70;;;4.40;64.60;;;4.00;48.71;92991.44;5095078;28;20199;-19
2023/03/11 03:20:13;;;;;;;0.80;0.80;;;4.40;64.80;;;4.03;48.97;93004.03;5078364;28;20198;-19
2023/03/11 03:22:44;;;;;;;0.80;0.80;;;4.40;65.10;;;4.00;50.01;92988.84;5112079;28;20256;-19
2023/03/11 03:25:14;;;;;;;0.70;0.70;;;4.40;65.30;;;3.92;49.97;93002.81;5111511;28;20238;-19
2023/03/11 03:27:41;;;;;;;0.80;0.80;;;4.40;65.50;;;3.88;50.49;92993.03;5112691;28;20214;-19
2023/03/11 03:30:09;;;;;;;0.80;0.80;;;4.40;65.70;;;3.82;50.74;93002.38;5111367;28;20205;-19
2023/03/11 03:32:37;;;;;;;0.80;0.80;;;4.30;65.70;;;3.85;50.55;92997.59;5094905;28;20579;-19
2023/03/11 03:35:08;;;;;;;0.70;0.70;;;4.30;65.90;;;3.75;50.86;93043.88;5078322;28;20198;-19
2023/03/11 03:38:00;;;;;;;0.70;0.70;;;4.30;65.80;;;3.64;50.59;92990.78;5111838;28;20282;-19
2023/03/11 03:40:28;;;;;;;0.80;0.80;;;4.20;65.80;;;3.67;50.93;93005.97;5111689;28;20198;-20
2023/03/11 03:42:57;;;;;;;0.80;0.80;;;4.20;66.00;;;3.73;50.97;93024.31;5095363;28;20521;-19
2023/03/11 03:45:24;;;;;;;0.80;0.80;;;4.10;66.00;;;3.75;50.49;93009.34;5094368;28;20269;-19
2023/03/11 03:47:52;;;;;;;0.80;0.80;;;4.10;65.90;;;3.76;50.71;93035.09;5094568;28;20626;-20
2023/03/11 03:50:21;;;;;;;0.70;0.70;;;4.20;65.80;;;3.67;50.59;93005.97;5095363;28;20504;-19
2023/03/11 03:52:50;;;;;;;0.80;0.80;;;4.10;65.70;;;3.72;50.68;93023.50;5094469;28;20534;-19
2023/03/11 03:55:17;;;;;;;0.80;0.80;;;4.10;66.00;;;3.73;51.30;93042.47;5094592;28;20543;-19
2023/03/11 03:57:44;;;;;;;0.70;0.70;;;4.10;66.00;;;3.64;51.72;93040.06;5095625;28;20195;-19
2023/03/11 04:00:14;;;;;;;0.60;0.60;;;4.10;66.40;;;3.57;51.53;93020.31;5094422;28;20307;-19
2023/03/11 04:02:43;;;;;;;0.70;0.70;;;4.10;66.50;;;3.59;51.91;93015.69;5094386;28;20198;-19
2023/03/11 04:05:20;;;;;;;0.80;0.80;;;4.00;66.60;;;3.54;51.89;93042.22;5111144;28;20215;-19
2023/03/11 04:07:47;;;;;;;0.80;0.80;;;4.00;66.40;;;3.41;51.70;93032.59;5095230;28;20187;-20
2023/03/11 04:10:14;;;;;;;0.70;0.70;;;4.00;66.30;;;3.35;51.27;93010.84;5094236;28;20226;-19
2023/03/11 04:12:42;;;;;;;0.80;0.80;;;3.90;66.10;;;3.22;51.79;93039.31;5095038;28;20202;-19
2023/03/11 04:15:09;;;;;;;0.70;0.70;;;3.90;66.40;;;3.28;52.06;93022.19;5110986;28;20198;-19
2023/03/11 04:17:38;;;;;;;0.70;0.70;;;3.80;66.50;;;3.25;51.52;93032.94;5094187;28;20223;-20
2023/03/11 04:20:07;;;;;;;0.80;0.80;;;3.80;66.30;;;3.22;51.42;93062.63;5094107;28;20642;-20
2023/03/11 04:22:35;;;;;;;0.80;0.80;;;3.80;66.20;;;3.19;51.60;93039.69;5094133;28;20288;-19
2023/03/11 04:25:03;;;;;;;0.80;0.80;;;3.70;66.30;;;3.29;50.92;93039.34;5110748;28;20261;-20
2023/03/11 04:27:31;;;;;;;0.70;0.70;;;3.70;66.00;;;3.27;50.78;93015.41;5094047;28;20205;-20
2023/03/11 04:29:59;;;;;;;0.70;0.70;;;3.70;65.90;;;3.20;50.69;93039.50;5094034;28;20199;-19
2023/03/11 04:32:26;;;;;;;0.70;0.70;;;3.70;65.80;;;3.17;50.92;93130.56;5094008;28;20207;-19
2023/03/11 04:34:53;;;;;;;0.80;0.80;;;3.70;65.90;;;3.11;51.21;93026.91;5093828;28;20199;-19
2023/03/11 04:37:21;;;;;;;0.70;0.70;;;3.70;66.10;;;3.22;51.55;93048.88;5110892;28;20540;-20
2023/03/11 04:39:52;;;;;;;0.70;0.70;;;3.60;66.20;;;3.25;50.61;93025.16;5095187;28;20213;-19
2023/03/11 04:42:19;;;;;;;0.60;0.60;;;3.70;66.00;;;3.27;50.78;93062.03;5095594;28;20202;-20
2023/03/11 04:44:47;;;;;;;0.70;0.70;;;3.70;66.00;;;3.14;51.97;93050.63;5098004;28;20280;-21
2023/03/11 04:47:14;;;;;;;0.90;0.90;;;3.70;66.40;;;3.13;51.20;93043.84;5115063;28;20528;-20
2023/03/11 04:49:42;;;;;;;0.70;0.70;;;3.70;66.00;;;3.09;51.91;93047.00;5114957;28;20672;-20
2023/03/11 04:52:10;;;;;;;0.70;0.70;;;3.60;66.30;;;3.09;51.40;93034.06;5115728;28;20302;-20
2023/03/11 04:54:37;;;;;;;0.70;0.70;;;3.60;66.10;;;3.06;52.34;93060.34;5114898;28;20218;-21
2023/03/11 04:57:05;;;;;;;0.60;0.60;;;3.60;66.10;;;2.99;52.84;93030.06;5098059;28;20206;-20
2023/03/11 04:59:33;;;;;;;0.70;0.70;;;3.60;66.70;;;2.90;52.87;93075.22;5114754;28;20638;-20
2023/03/11 05:02:00;;;;;;;0.70;0.70;;;3.50;66.80;;;2.90;53.51;93054.50;5097707;28;20280;-20
2023/03/11 05:04:27;;;;;;;0.70;0.70;;;3.50;67.40;;;2.90;53.28;93051.13;5114462;28;20210;-20
2023/03/11 05:06:55;;;;;;;0.70;0.70;;;3.50;67.30;;;2.94;52.99;93091.16;5097605;28;20191;-20
2023/03/11 05:09:24;;;;;;;0.80;0.80;;;3.50;67.30;;;2.94;51.55;93094.56;5097553;28;20289;-20
2023/03/11 05:11:51;;;;;;;0.70;0.70;;;3.50;66.50;;;2.88;52.02;93106.47;5114512;27;20197;-20
2023/03/11 05:14:19;;;;;;;0.80;0.80;;;3.40;66.50;;;2.91;51.90;93087.16;5097286;28;20190;-20
2023/03/11 05:16:47;;;;;;;0.70;0.70;;;3.40;66.70;;;2.97;51.70;93085.63;5114456;28;20279;-20
2023/03/11 05:19:33;;;;;;;0.70;0.70;;;3.40;66.40;;;3.07;51.73;93093.03;5114349;28;20289;-20
2023/03/11 05:22:07;;;;;;;0.70;0.70;;;3.50;66.40;;;3.08;50.18;93117.97;5097332;28;20191;-21
2023/03/11 05:24:36;;;;;;;0.60;0.60;;;3.50;65.70;;;3.09;50.23;93099.63;5113844;28;20234;-20
2023/03/11 05:27:04;;;;;;;0.80;0.80;;;3.50;65.50;;;3.03;49.24;93103.78;5114283;28;20202;-21
2023/03/11 05:29:33;;;;;;;0.80;0.80;;;3.50;65.00;;;3.09;48.73;93096.22;5098062;28;20293;-21
2023/03/11 05:32:00;;;;;;;0.60;0.60;;;3.60;64.90;;;3.16;49.01;93110.84;5097105;28;20580;-20
2023/03/11 05:34:27;;;;;;;0.80;0.80;;;3.60;64.90;;;3.22;48.71;93114.44;5098165;28;20277;-20
2023/03/11 05:36:54;;;;;;;0.80;0.80;;;3.70;64.80;;;3.20;48.92;93148.31;5097028;28;20227;-20
2023/03/11 05:39:22;;;;;;;0.80;0.80;;;3.70;64.60;;;3.31;48.62;93095.16;5096972;28;20195;-21
2023/03/11 05:41:50;;;;;;;0.80;0.80;;;3.70;64.50;;;3.32;49.10;93153.78;5113975;28;20202;-20
2023/03/11 05:44:17;;;;;;;0.70;0.70;;;3.70;64.90;;;3.24;47.79;93122.81;5096841;28;20210;-21
2023/03/11 05:46:44;;;;;;;0.70;0.70;;;3.80;63.90;;;3.17;48.14;93151.28;5097705;28;20537;-20
2023/03/11 05:49:11;;;;;;;0.80;0.80;;;3.70;64.00;;;3.22;47.68;93127.38;5113858;28;20199;-20
2023/03/11 05:51:39;;;;;;;0.70;0.70;;;3.70;63.90;;;3.27;47.84;93160.50;5096835;28;20638;-18
2023/03/11 05:54:13;;;;;;;0.70;0.70;;;3.70;64.10;;;3.29;48.11;93153.34;5096031;28;20637;-19
2023/03/11 05:56:44;;;;;;;0.60;0.60;;;3.80;64.20;;;3.23;48.24;93178.22;5113609;28;20194;-19
2023/03/11 05:59:14;;;;;;;0.70;0.70;;;3.80;64.10;;;3.30;47.72;93171.28;5113634;28;20545;-18
2023/03/11 06:01:45;;;;;;;0.77;0.77;;;3.70;63.90;;;3.31;47.85;93170.31;5096629;28;20199;-19
2023/03/11 06:04:12;;;;;;;0.70;0.70;;;3.80;63.80;;;3.39;47.84;93190.06;5113501;28;20225;-19
2023/03/11 06:06:40;;;;;;;0.70;0.70;;;3.80;63.90;;;3.39;47.13;93164.16;5096365;28;20206;-18
2023/03/11 06:09:14;;;;;;;0.70;0.70;;;3.90;63.40;;;3.36;47.19;93187.88;5113416;28;20601;-19
2023/03/11 06:11:43;;;;;;;0.80;0.80;;;3.90;63.50;;;3.47;46.87;93176.19;5096447;28;20273;-19
2023/03/11 06:14:13;;;;;;;0.80;0.80;;;3.90;63.30;;;3.54;47.36;93189.97;5096346;28;20210;-19
2023/03/11 06:16:42;;;;;;;0.60;0.60;;;3.90;63.50;;;3.62;46.88;93181.25;5113466;28;20595;-19
2023/03/11 06:19:11;;;;;;;0.70;0.70;;;4.00;63.40;;;3.56;46.70;93193.16;5096233;28;20533;-18
2023/03/11 06:21:42;;;;;;;0.60;0.60;;;4.00;63.10;;;3.58;46.66;93209.34;5113397;28;20653;-19
2023/03/11 06:24:09;;;;;;;0.70;0.70;;;4.00;63.10;;;3.61;46.39;93198.56;5095883;28;20241;-19
2023/03/11 06:26:37;;;;;;;0.70;0.70;;;4.00;63.00;;;3.68;46.27;93209.78;5112917;28;20527;-18
2023/03/11 06:29:11;;;;;;;0.70;0.70;;;4.00;62.80;;;3.65;45.91;93219.72;5113017;28;20377;-19
2023/03/11 06:31:40;;;;;;;0.70;0.70;;;4.10;62.60;;;3.64;46.58;93210.38;5095969;28;20240;-19
2023/03/11 06:34:10;;;;;;;0.70;0.70;;;4.10;62.80;;;3.59;46.07;93203.16;5096232;28;20279;-19
2023/03/11 06:36:38;;;;;;;0.80;0.80;;;4.10;62.50;;;3.51;46.32;93219.66;5095729;28;20222;-19
2023/03/11 06:39:05;;;;;;;0.70;0.70;;;4.10;62.50;;;3.52;46.88;93204.91;5096735;28;20199;-19
2023/03/11 06:41:34;;;;;;;0.80;0.80;;;4.10;62.70;;;3.56;46.06;93221.69;5112817;28;20283;-19
2023/03/11 06:44:03;;;;;;;0.60;0.60;;;4.10;62.40;;;3.51;46.06;93209.28;5113248;28;20191;-19
2023/03/11 06:46:31;;;;;;;0.70;0.70;;;4.10;62.50;;;3.53;46.49;93222.06;5095816;28;20198;-20
2023/03/11 06:48:58;;;;;;;0.70;0.70;;;4.10;62.70;;;3.57;46.19;93228.47;5096140;28;20195;-19
2023/03/11 06:51:27;;;;;;;0.70;0.70;;;4.10;62.70;;;3.63;46.24;93268.41;5113411;28;20199;-19
2023/03/11 06:53:54;;;;;;;0.70;0.70;;;4.10;62.40;;;3.56;45.86;93299.44;5096505;28;20622;-19
2023/03/11 06:56:22;;;;;;;0.70;0.70;;;4.10;62.10;;;3.50;46.25;93262.13;5095359;28;20210;-19
2023/03/11 06:59:03;;;;;;;0.70;0.70;;;4.10;62.40;;;3.54;47.14;93262.56;5096724;28;20573;-19
2023/03/11 07:01:32;;;;;;;0.70;0.70;;;4.10;62.90;;;3.58;46.52;93275.94;5112444;28;20209;-19
2023/03/11 07:04:01;;;;;;;0.80;0.80;;;4.10;62.70;;;3.67;46.65;93287.75;5112342;28;20198;-19
2023/03/11 07:06:29;;;;;;;0.70;0.70;;;4.10;62.90;;;3.67;46.62;93273.00;5111087;28;20295;-19
2023/03/11 07:09:24;;;;;;;0.60;0.60;;;4.20;62.80;;;3.69;46.87;93303.94;5095005;28;20199;-19
2023/03/11 07:11:51;;;;;;;0.70;0.70;;;4.20;62.80;;;3.72;46.67;93282.00;5112197;28;20587;-19
2023/03/11 07:14:25;;;;;;;0.70;0.70;;;4.20;63.00;;;3.60;46.40;93357.72;5095199;28;20506;-19
2023/03/11 07:16:55;;;;;;;0.70;0.70;;;4.20;62.50;;;3.62;46.67;93313.47;5096488;28;20229;-19
2023/03/11 07:19:28;;;;;;;0.80;0.80;;;4.20;62.90;;;3.58;47.19;93354.50;5112122;28;20206;-19
2023/03/11 07:21:55;;;;;;;0.80;0.80;;;4.20;63.10;;;3.63;47.59;93315.84;5095980;28;20195;-19
2023/03/11 07:24:22;;;;;;;0.80;0.80;;;4.20;63.40;;;3.75;47.74;93336.88;5111640;28;20227;-19
2023/03/11 07:26:49;;;;;;;0.75;0.75;;;4.20;63.60;;;3.73;47.17;93338.06;5095719;28;20187;-19
2023/03/11 07:29:16;;;;;;;0.77;0.77;;;4.30;63.20;;;3.64;46.91;93330.41;5112856;27;20199;-19
2023/03/11 07:31:43;;;;;;;0.80;0.80;;;4.40;62.90;;;3.73;46.86;93335.47;5096046;28;20187;-19
2023/03/11 07:34:11;;;;;;;0.80;0.80;;;4.30;62.80;;;3.64;47.09;93327.81;5111796;28;20187;-19
2023/03/11 07:36:41;;;;;;;0.80;0.80;;;4.30;62.70;;;3.68;47.46;93331.63;5095561;28;20187;-19
2023/03/11 07:39:14;;;;;;;0.70;0.70;;;4.30;63.10;;;3.81;47.19;93336.13;5095937;28;20209;-19
2023/03/11 07:41:41;;;;;;;0.65;0.65;;;4.30;63.00;;;3.88;46.87;93351.72;5095966;28;20183;-19
2023/03/11 07:44:12;;;;;;;0.70;0.70;;;4.40;62.80;;;3.88;46.71;93398.41;5095575;28;20642;-19
2023/03/11 07:46:40;;;;;;;0.60;0.60;;;4.50;62.80;;;3.90;46.59;93357.53;5095727;28;20573;-19
2023/03/11 07:49:07;;;;;;;0.60;0.60;;;4.50;62.70;;;3.88;47.49;93358.72;5095823;28;20198;-19
2023/03/11 07:51:37;;;;;;;0.75;0.75;;;4.40;63.10;;;3.82;46.94;93366.25;5095698;28;20186;-19
2023/03/11 07:54:04;;;;;;;0.60;0.60;;;4.50;62.70;;;3.82;46.98;93420.72;5095723;28;20191;-19
2023/03/11 07:56:34;;;;;;;0.70;0.70;;;4.50;62.90;;;3.83;46.90;93378.25;5094320;28;20199;-19
2023/03/11 07:59:03;;;;;;;0.70;0.70;;;4.50;62.80;;;3.88;47.45;93374.28;5095391;28;20237;-20
2023/03/11 08:01:39;;;;;;;0.70;0.70;;;4.50;63.30;;;3.98;47.16;93398.91;5095326;28;20199;-19
2023/03/11 08:04:10;;;;;;;0.70;0.70;;;4.50;63.10;;;4.02;47.95;93386.34;5095872;28;20197;-19
2023/03/11 08:06:44;;;;;;;0.70;0.70;;;4.60;63.40;;;3.96;48.06;93418.25;5095184;28;20696;-19
2023/03/11 08:09:11;;;;;;;0.70;0.70;;;4.60;63.40;;;3.88;48.80;93429.53;5111118;28;20179;-19
2023/03/11 08:11:39;;;;;;;0.70;0.70;;;4.60;64.00;;;3.89;49.10;93419.97;5095196;28;20285;-19
2023/03/11 08:14:06;;;;;;;0.70;0.70;;;4.60;64.30;;;3.98;48.71;93435.22;5095489;28;20197;-19
2023/03/11 08:16:33;;;;;;;0.80;0.80;;;4.60;64.00;;;3.96;49.79;93439.00;5094638;28;20195;-19
2023/03/11 08:19:00;;;;;;;0.70;0.70;;;4.60;64.50;;;3.98;49.09;93437.81;5101462;28;20544;-19
2023/03/11 08:21:30;;;;;;;0.80;0.80;;;4.60;64.20;;;4.06;47.02;93433.47;5100763;28;20209;-19
2023/03/11 08:24:00;;;;;;;0.60;0.60;;;4.60;63.00;;;4.03;47.28;93450.22;5095045;28;20226;-19
2023/03/11 08:26:28;;;;;;;0.70;0.70;;;4.60;63.20;;;4.07;47.24;93453.25;5094153;28;20211;-19
2023/03/11 08:28:56;;;;;;;0.70;0.70;;;4.60;63.20;;;4.15;47.65;93466.06;5095342;28;20221;-19
2023/03/11 08:31:27;;;;;;;0.70;0.70;;;4.70;63.40;;;4.13;47.05;93447.31;5095075;28;20688;-19
2023/03/11 08:33:59;;;;;;;0.80;0.80;;;4.70;62.90;;;4.25;46.81;93453.56;5094841;28;20183;-19
2023/03/11 08:36:27;;;;;;;0.70;0.70;;;4.80;62.80;;;4.23;46.38;93449.56;5095332;28;20226;-19
2023/03/11 08:38:54;;;;;;;0.70;0.70;;;4.80;62.70;;;4.23;47.20;93465.13;5094903;28;20664;-19
2023/03/11 08:41:21;;;;;;;0.70;0.70;;;4.80;62.90;;;4.26;46.58;93454.38;5095454;28;20194;-19
2023/03/11 08:43:50;;;;;;;0.70;0.70;;;4.80;62.80;;;4.29;46.62;93465.16;5094853;28;20252;-19
2023/03/11 08:46:31;;;;;;;0.70;0.70;;;4.80;62.80;;;4.39;46.75;93480.41;5094661;28;20665;-19
2023/03/11 08:48:59;;;;;;;0.70;0.70;;;4.90;63.00;;;4.53;46.47;93494.31;5095741;28;20253;-19
2023/03/11 08:51:29;;;;;;;0.70;0.70;;;5.00;62.90;;;4.62;45.62;93494.97;5105819;28;20191;-19
2023/03/11 08:53:57;;;;;;;0.73;0.73;;;5.10;62.30;;;4.66;45.48;93501.38;5077687;28;20218;-19
2023/03/11 08:56:24;;;;;;;0.60;0.60;;;5.20;62.10;;;4.51;45.48;93511.84;5094762;28;20191;-19
2023/03/11 08:58:52;;;;;;;0.80;0.80;;;5.20;61.90;;;4.47;45.52;93526.22;5094754;28;20206;-19
2023/03/11 09:01:19;;;;;;;0.70;0.70;;;5.20;62.00;;;4.49;46.06;93532.00;5095000;28;20263;-19
2023/03/11 09:03:46;;;;;;;0.60;0.60;;;5.10;62.20;;;4.41;45.88;93530.34;5094756;28;20329;-19
2023/03/11 09:06:15;;;;;;;0.70;0.70;;;5.10;62.20;;;4.52;45.50;93528.22;5110952;28;20657;-19
2023/03/11 09:08:44;;;;;;;0.60;0.60;;;5.10;61.90;;;4.41;45.94;93553.72;5094048;28;20206;-19
2023/03/11 09:11:12;;;;;;;0.65;0.65;;;5.20;62.10;;;4.43;45.84;93532.75;5103105;28;20564;-19
2023/03/11 09:13:41;;;;;;;0.70;0.70;;;5.10;62.10;;;4.52;45.61;93549.00;5103636;28;20205;-19
2023/03/11 09:16:16;;;;;;;0.80;0.80;;;5.10;62.00;;;4.49;45.16;93547.59;5109254;28;20537;-19
2023/03/11 09:18:43;;;;;;;0.70;0.70;;;5.20;61.60;;;4.56;45.18;93564.03;5115264;28;20231;-19
2023/03/11 09:21:11;;;;;;;0.70;0.70;;;5.20;61.70;;;4.63;45.05;93572.66;5114585;28;20508;-19
2023/03/11 09:23:39;;;;;;;0.80;0.80;;;5.20;61.70;;;4.74;45.13;93557.56;5114679;28;20625;-19
2023/03/11 09:26:10;;;;;;;0.70;0.70;;;5.30;61.80;;;4.65;44.53;93568.09;5110658;28;20293;-19
2023/03/11 09:28:37;;;;;;;0.70;0.70;;;5.30;61.30;;;4.66;45.05;93555.91;5121989;27;20255;-19
2023/03/11 09:31:04;;;;;;;0.80;0.80;;;5.30;61.70;;;4.75;45.33;93591.16;5104419;28;20195;-19
2023/03/11 09:33:36;;;;;;;0.60;0.60;;;5.30;61.70;;;4.80;43.87;93570.59;5106538;28;20190;-19
2023/03/11 09:36:03;;;;;;;0.60;0.60;;;5.40;61.00;;;4.83;44.55;93577.19;5106690;28;20282;-19
2023/03/11 09:38:30;;;;;;;0.80;0.80;;;5.40;61.20;;;4.86;43.67;93552.63;5097807;28;20291;-19
2023/03/11 09:41:42;;;;;;;0.70;0.70;;;5.40;60.80;;;4.90;44.10;93572.84;5097889;28;20191;-23
2023/03/11 09:45:11;;;;;;;0.70;0.70;;;5.50;61.10;;;5.05;43.66;93582.34;5096956;28;20281;-21
2023/03/11 09:47:50;;;;;;;0.75;0.75;;;5.60;60.90;;;5.24;42.55;93599.84;5094949;28;20207;-21
2023/03/11 09:50:42;;;;;;;0.70;0.70;;;5.70;60.20;;;5.27;42.00;93585.66;5096941;28;20178;-21
2023/03/11 09:53:42;;;;;;;0.70;0.70;;;5.80;59.50;;;5.10;42.29;93588.59;5097619;28;20179;-21
2023/03/11 09:56:13;;;;;;;0.70;0.70;;;5.90;59.60;;;5.08;43.28;93600.16;5097534;28;20183;-21
2023/03/11 09:58:49;;;;;;;0.70;0.70;;;5.80;59.80;;;5.11;42.59;93610.16;5096617;28;20198;-21
2023/03/11 10:01:44;;;;;;;0.70;0.70;;;5.80;59.80;;;5.15;42.60;93597.59;5113289;28;20193;-23
2023/03/11 10:04:38;;;;;;;0.80;0.80;;;5.80;59.40;;;5.21;42.14;93605.44;5117048;28;20200;-20
2023/03/11 10:07:16;;;;;;;0.70;0.70;;;5.80;59.40;;;5.39;42.06;93614.53;5133902;27;20198;-20
2023/03/11 10:09:56;;;;;;;0.70;0.70;;;5.90;59.50;;;5.43;41.21;93626.97;5113886;28;20556;-20
2023/03/11 10:13:15;;;;;;;0.70;0.70;;;6.00;58.70;;;5.47;41.44;93636.97;5107991;28;20202;-21
2023/03/11 10:15:53;;;;;;;0.70;0.70;;;6.10;59.00;;;5.48;41.34;93636.81;5095114;28;20210;-21
2023/03/11 10:18:48;;;;;;;0.60;0.60;;;6.10;58.40;;;5.46;40.92;93625.78;5117516;28;20179;-22
2023/03/11 10:21:38;;;;;;;0.70;0.70;;;6.10;58.10;;;5.40;41.02;93623.94;5116669;28;20540;-20
2023/03/11 10:24:53;;;;;;;0.70;0.70;;;6.10;58.50;;;5.47;41.69;93636.97;5115060;28;20325;-21
2023/03/11 10:27:31;;;;;;;0.80;0.80;;;6.00;58.60;;;5.55;40.43;93642.03;5104478;27;20234;-20
2023/03/11 10:30:24;;;;;;;0.75;0.75;;;6.10;58.00;;;5.73;40.60;93637.09;5108814;28;20198;-20
2023/03/11 10:33:03;;;;;;;0.70;0.70;;;6.20;58.50;;;5.97;42.35;93648.03;5116534;28;20191;-19
2023/03/11 10:35:40;;;;;;;0.73;0.73;;;6.40;59.80;;;6.04;41.09;93646.28;5117066;28;20264;-20
2023/03/11 10:38:21;;;;;;;0.80;0.80;;;6.50;58.60;;;5.95;41.21;93664.84;5117425;28;20614;-22
2023/03/11 10:40:53;;;;;;;0.70;0.70;;;6.60;58.20;;;5.97;42.13;93668.84;5116865;28;20608;-22
2023/03/11 10:43:46;;;;;;;0.60;0.60;;;6.60;59.20;;;5.99;41.64;93673.88;5133229;27;20209;-20
2023/03/11 10:46:25;;;;;;;0.80;0.80;;;6.60;58.90;;;6.05;41.40;93670.50;5116568;27;20536;-20
2023/03/11 10:48:52;;;;;;;0.70;0.70;;;6.70;58.60;;;6.01;41.08;93674.50;5116768;28;20205;-20
2023/03/11 10:51:22;;;;;;;0.70;0.70;;;6.70;58.40;;;5.84;41.47;93677.38;5104938;28;20209;-19